Time;durP1;ratioP1;P1;durP2;ratioP2;P2;SDS_P1;SDS_P2;PMS_P1;PMS_P2;Temp;Humidity;BMP_temperature;BMP_pressure;BME280_temperature;BME280_humidity;BME280_pressure;Samples;Min_cycle;Max_cycle;Signal;HPM_P1;HPM_P2
2022/07/01 00:01:39;;;;;;;4.00;2.70;;;;;;;15.24;61.37;99192.56;5031493;28;20148;-65
2022/07/01 00:04:05;;;;;;;5.40;2.95;;;;;;;15.24;61.77;99189.91;5031406;28;20037;-65
2022/07/01 00:06:31;;;;;;;5.30;3.15;;;;;;;15.26;61.74;99192.28;5042986;28;20086;-66
2022/07/01 00:08:57;;;;;;;3.50;2.85;;;;;;;15.24;61.60;99191.78;5034144;28;20124;-65
2022/07/01 00:11:22;;;;;;;7.13;3.60;;;;;;;15.26;61.76;99197.63;5042850;28;20049;-65
2022/07/01 00:13:48;;;;;;;5.90;3.50;;;;;;;15.27;61.51;99193.91;5035366;28;20077;-65
2022/07/01 00:16:14;;;;;;;5.57;2.90;;;;;;;15.33;61.76;99198.13;5032068;28;20044;-65
2022/07/01 00:18:39;;;;;;;5.32;3.15;;;;;;;15.41;61.43;99201.03;5033417;28;20033;-66
2022/07/01 00:21:05;;;;;;;5.68;3.47;;;;;;;15.46;61.24;99205.56;5031154;28;20545;-65
2022/07/01 00:23:31;;;;;;;4.05;3.03;;;;;;;15.47;61.07;99193.00;5035422;28;20037;-65
2022/07/01 00:25:57;;;;;;;5.72;3.20;;;;;;;15.44;61.59;99197.00;5031318;28;20050;-66
2022/07/01 00:28:23;;;;;;;5.68;3.30;;;;;;;15.43;61.30;99198.09;5032926;28;20487;-64
2022/07/01 00:30:48;;;;;;;6.88;3.30;;;;;;;15.37;61.71;99201.84;5048425;28;20045;-66
2022/07/01 00:33:14;;;;;;;4.32;3.10;;;;;;;15.36;61.75;99209.06;5037566;28;20037;-65
2022/07/01 00:35:40;;;;;;;4.50;3.20;;;;;;;15.30;61.98;99190.69;5053309;28;20048;-65
2022/07/01 00:38:05;;;;;;;5.88;3.30;;;;;;;15.39;61.92;99189.03;5052813;28;20045;-65
2022/07/01 00:40:31;;;;;;;5.07;3.25;;;;;;;15.43;61.91;99193.53;5044814;28;20211;-66
2022/07/01 00:42:57;;;;;;;7.93;3.70;;;;;;;15.42;61.96;99197.28;5035027;28;20036;-65
2022/07/01 00:45:22;;;;;;;4.97;3.38;;;;;;;15.42;62.01;99199.16;5034843;28;20045;-65
2022/07/01 00:47:49;;;;;;;4.68;3.40;;;;;;;15.36;62.08;99194.94;5035765;28;20064;-65
2022/07/01 00:50:16;;;;;;;5.07;3.28;;;;;;;15.36;62.28;99203.72;5035622;28;20466;-66
2022/07/01 00:52:43;;;;;;;7.22;3.60;;;;;;;15.37;61.99;99197.31;5043997;28;20056;-65
2022/07/01 00:55:11;;;;;;;5.60;3.63;;;;;;;15.38;62.49;99198.94;5049378;28;20408;-65
2022/07/01 00:57:38;;;;;;;6.78;3.60;;;;;;;15.47;61.77;99196.50;5048882;28;20059;-64
2022/07/01 01:00:10;;;;;;;5.45;3.47;;;;;;;15.52;62.16;99196.44;5042509;28;20065;-65
2022/07/01 01:02:36;;;;;;;16.13;3.90;;;;;;;15.59;61.28;99199.63;5049172;28;20057;-65
2022/07/01 01:05:05;;;;;;;5.38;3.40;;;;;;;15.69;61.40;99209.50;5037207;28;20136;-64
2022/07/01 01:07:31;;;;;;;4.88;3.63;;;;;;;15.83;61.20;99204.34;5048345;28;20040;-65
2022/07/01 01:09:59;;;;;;;6.00;3.80;;;;;;;15.93;60.66;99195.47;5043399;28;20522;-66
2022/07/01 01:12:25;;;;;;;5.38;3.70;;;;;;;16.15;59.84;99211.06;5032479;28;20041;-66
2022/07/01 01:14:51;;;;;;;4.05;3.65;;;;;;;16.36;59.56;99207.19;5040062;28;20046;-65
2022/07/01 01:17:18;;;;;;;6.15;4.20;;;;;;;16.48;58.82;99204.16;5040517;28;20560;-65
2022/07/01 01:19:44;;;;;;;6.72;3.95;;;;;;;16.65;58.39;99199.19;5053757;28;20132;-65
2022/07/01 01:22:11;;;;;;;5.82;3.45;;;;;;;16.85;58.12;99210.78;5036035;28;20037;-65
2022/07/01 01:24:37;;;;;;;4.80;3.60;;;;;;;17.07;57.36;99210.31;5034111;28;20045;-65
2022/07/01 01:27:04;;;;;;;5.20;3.20;;;;;;;17.22;56.91;99213.63;5035035;28;20397;-65
2022/07/01 01:29:30;;;;;;;7.05;3.60;;;;;;;17.44;56.23;99220.31;5032402;28;20144;-65
2022/07/01 01:31:56;;;;;;;4.65;3.67;;;;;;;17.60;55.76;99216.38;5036549;28;20057;-65
2022/07/01 01:34:22;;;;;;;6.72;3.80;;;;;;;17.83;55.17;99211.31;5040942;28;20387;-65
2022/07/01 01:36:47;;;;;;;8.40;4.15;;;;;;;17.99;54.73;99212.66;5027115;28;20041;-65
2022/07/01 01:39:16;;;;;;;5.15;3.85;;;;;;;18.21;54.25;99203.25;5049671;28;20045;-65
2022/07/01 01:41:42;;;;;;;4.40;3.70;;;;;;;18.30;53.82;99222.97;5034859;28;20041;-66
2022/07/01 01:44:08;;;;;;;5.68;3.75;;;;;;;18.39;53.49;99218.50;5051251;28;20067;-65
2022/07/01 01:46:34;;;;;;;9.23;4.55;;;;;;;18.52;53.12;99216.97;5051751;28;20041;-65
2022/07/01 01:49:00;;;;;;;5.65;3.63;;;;;;;18.81;52.48;99216.75;5035504;28;20132;-65
2022/07/01 01:51:27;;;;;;;4.75;3.75;;;;;;;19.04;51.89;99225.75;5043622;28;20513;-64
2022/07/01 01:53:53;;;;;;;6.30;3.55;;;;;;;19.38;50.82;99214.59;5049388;28;20046;-65
2022/07/01 01:56:18;;;;;;;7.40;3.45;;;;;;;19.67;49.99;99216.97;5035715;28;20030;-65
2022/07/01 01:58:44;;;;;;;9.25;4.00;;;;;;;19.88;49.58;99217.38;5042705;28;20052;-65
2022/07/01 02:01:11;;;;;;;4.45;3.90;;;;;;;20.38;48.15;99221.84;5037034;28;20879;-65
2022/07/01 02:03:37;;;;;;;6.72;3.90;;;;;;;20.40;47.95;99236.59;5039997;28;20049;-66
2022/07/01 02:06:04;;;;;;;9.13;4.10;;;;;;;20.41;47.65;99223.94;5047640;28;20473;-66
2022/07/01 02:08:31;;;;;;;5.70;3.83;;;;;;;20.67;47.14;99226.03;5035495;28;20067;-66
2022/07/01 02:10:57;;;;;;;7.03;4.05;;;;;;;21.15;46.29;99228.00;5039499;28;20083;-65
2022/07/01 02:13:23;;;;;;;6.22;3.65;;;;;;;21.65;44.95;99235.78;5042474;28;20041;-65
2022/07/01 02:15:49;;;;;;;7.82;3.92;;;;;;;21.51;44.68;99231.34;5033157;28;20056;-65
2022/07/01 02:18:15;;;;;;;7.40;4.15;;;;;;;21.42;45.00;99238.63;5010398;28;20562;-66
2022/07/01 02:20:41;;;;;;;6.15;3.80;;;;;;;21.59;44.96;99237.88;5031616;28;20045;-66
2022/07/01 02:23:08;;;;;;;7.78;3.78;;;;;;;21.57;44.84;99237.38;5048146;28;20438;-67
2022/07/01 02:25:34;;;;;;;9.27;3.95;;;;;;;21.68;44.58;99232.50;5052851;28;20041;-67
2022/07/01 02:28:00;;;;;;;6.05;3.95;;;;;;;21.88;44.06;99239.16;5036787;28;20060;-68
2022/07/01 02:30:27;;;;;;;5.47;4.05;;;;;;;22.40;42.61;99228.41;5036024;28;20507;-67
2022/07/01 02:32:52;;;;;;;8.40;3.58;;;;;;;22.74;42.10;99232.19;5035675;28;20123;-65
2022/07/01 02:35:18;;;;;;;5.40;4.15;;;;;;;23.39;40.34;99243.72;5050694;28;20128;-65
2022/07/01 02:37:44;;;;;;;6.53;3.58;;;;;;;23.21;40.51;99254.63;5041869;28;20411;-66
2022/07/01 02:40:11;;;;;;;6.00;3.50;;;;;;;23.23;40.44;99249.66;5033448;28;20045;-65
2022/07/01 02:42:37;;;;;;;6.78;3.42;;;;;;;23.18;40.36;99266.09;5049341;28;20060;-64
2022/07/01 02:45:03;;;;;;;4.50;3.33;;;;;;;23.00;40.05;99270.75;5034798;28;20041;-64
2022/07/01 02:47:34;;;;;;;4.28;3.50;;;;;;;22.80;41.00;99272.22;5033322;28;20518;-65
2022/07/01 02:50:00;;;;;;;5.72;3.33;;;;;;;22.67;40.89;99275.88;5050598;28;20098;-66
2022/07/01 02:52:26;;;;;;;5.03;3.30;;;;;;;22.51;40.92;99278.28;5050481;28;20049;-65
2022/07/01 02:54:53;;;;;;;7.22;3.30;;;;;;;22.36;41.12;99281.47;5038406;28;20460;-65
2022/07/01 02:57:18;;;;;;;6.38;3.53;;;;;;;22.26;41.43;99274.47;5045494;28;20116;-65
2022/07/01 02:59:44;;;;;;;7.25;3.50;;;;;;;22.61;40.55;99285.25;5051222;28;20106;-65
2022/07/01 03:02:10;;;;;;;8.93;4.07;;;;;;;22.70;40.29;99280.63;5035834;28;20538;-65
2022/07/01 03:04:35;;;;;;;5.97;3.20;;;;;;;22.44;41.20;99286.88;5046341;28;20045;-66
2022/07/01 03:07:01;;;;;;;6.35;3.20;;;;;;;23.22;39.77;99296.75;5041055;28;20072;-65
2022/07/01 03:09:27;;;;;;;6.72;3.30;;;;;;;23.26;38.69;99297.69;5041388;28;20523;-66
2022/07/01 03:11:53;;;;;;;5.10;3.20;;;;;;;23.15;39.68;99296.47;5032808;28;20090;-65
2022/07/01 03:14:18;;;;;;;6.63;3.63;;;;;;;23.37;38.76;99302.75;5017879;28;20123;-66
2022/07/01 03:16:46;;;;;;;6.68;3.05;;;;;;;23.08;38.99;99305.06;5048804;28;20514;-66
2022/07/01 03:19:13;;;;;;;7.47;3.42;;;;;;;23.37;38.43;99300.84;5013868;28;20418;-66
2022/07/01 03:21:38;;;;;;;6.07;3.25;;;;;;;23.13;38.91;99302.19;5032593;28;20034;-65
2022/07/01 03:24:04;;;;;;;5.63;3.20;;;;;;;23.40;38.61;99313.72;5031690;28;20461;-67
2022/07/01 03:26:30;;;;;;;5.60;3.03;;;;;;;23.42;38.65;99308.00;5047607;28;20183;-66
2022/07/01 03:28:56;;;;;;;6.22;3.47;;;;;;;23.78;37.54;99305.59;5014197;28;20091;-66
2022/07/01 03:31:21;;;;;;;6.03;3.33;;;;;;;23.86;37.49;99308.59;5031656;28;20053;-66
2022/07/01 03:33:47;;;;;;;4.95;2.70;;;;;;;23.77;36.64;99316.78;5047107;28;20411;-66
2022/07/01 03:36:13;;;;;;;6.65;2.97;;;;;;;23.55;36.91;99312.38;5037729;28;20033;-66
2022/07/01 03:38:39;;;;;;;3.28;2.47;;;;;;;23.56;36.87;99316.69;5029633;28;20053;-66
2022/07/01 03:41:04;;;;;;;3.55;2.63;;;;;;;23.54;37.43;99325.13;5045584;28;20037;-65
2022/07/01 03:43:30;;;;;;;4.03;2.88;;;;;;;23.30;37.43;99314.09;5043534;28;20633;-66
2022/07/01 03:45:56;;;;;;;6.38;3.13;;;;;;;23.55;36.75;99310.47;5042126;28;20049;-65
2022/07/01 03:48:22;;;;;;;8.80;2.72;;;;;;;23.65;36.54;99313.91;5042764;28;20038;-66
2022/07/01 03:50:48;;;;;;;7.85;2.88;;;;;;;23.69;36.55;99323.00;5031239;28;20045;-66
2022/07/01 03:55:57;;;;;;;2.65;2.45;;;;;;;23.46;36.39;99325.94;5036975;28;20053;-66
2022/07/01 03:58:23;;;;;;;3.60;2.47;;;;;;;23.08;36.59;99326.69;5033267;28;20045;-65
2022/07/01 04:00:49;;;;;;;2.63;2.10;;;;;;;23.10;36.00;99329.09;5049814;28;20118;-65
2022/07/01 04:03:15;;;;;;;2.92;2.33;;;;;;;22.95;36.87;99329.59;5043792;28;20106;-65
2022/07/01 04:05:40;;;;;;;3.42;2.40;;;;;;;23.03;36.98;99345.81;5053359;28;20499;-66
2022/07/01 04:08:11;;;;;;;5.85;2.20;;;;;;;22.85;37.14;99341.50;5053186;28;20037;-66
2022/07/01 04:10:39;;;;;;;5.20;2.10;;;;;;;22.61;36.38;99342.00;5001692;28;20037;-67
2022/07/01 04:13:05;;;;;;;4.43;2.22;;;;;;;22.68;36.52;99335.00;5050660;28;20042;-66
2022/07/01 04:15:31;;;;;;;3.33;2.15;;;;;;;22.88;36.53;99357.06;5034156;28;20057;-67
2022/07/01 04:17:56;;;;;;;3.67;2.15;;;;;;;22.84;35.57;99358.84;5047414;28;20045;-67
2022/07/01 04:20:22;;;;;;;2.65;1.92;;;;;;;22.74;35.53;99342.97;5037100;28;20056;-66
2022/07/01 04:22:48;;;;;;;4.43;2.22;;;;;;;22.79;34.77;99350.88;5050605;28;20495;-65
2022/07/01 04:25:14;;;;;;;3.58;2.03;;;;;;;22.31;35.78;99349.94;5038687;28;20045;-67
2022/07/01 04:27:39;;;;;;;4.63;1.90;;;;;;;21.99;36.63;99365.38;5051158;28;20070;-67
2022/07/01 04:30:05;;;;;;;2.60;1.75;;;;;;;22.27;34.76;99359.78;5035673;28;20029;-67
2022/07/01 04:32:31;;;;;;;3.05;1.70;;;;;;;22.33;34.70;99361.22;5042755;28;20518;-66
2022/07/01 04:34:57;;;;;;;2.83;1.77;;;;;;;22.30;33.89;99382.66;5053151;28;20041;-65
2022/07/01 04:37:23;;;;;;;2.85;1.80;;;;;;;22.02;34.77;99377.47;5045108;28;20056;-66
2022/07/01 04:39:49;;;;;;;4.80;1.88;;;;;;;21.96;35.23;99373.31;5034560;28;20507;-67
2022/07/01 04:42:15;;;;;;;3.30;1.90;;;;;;;21.73;34.87;99384.19;5042617;28;20418;-66
2022/07/01 04:44:41;;;;;;;2.65;1.60;;;;;;;21.92;34.60;99386.66;5046106;28;20037;-67
2022/07/01 04:47:06;;;;;;;3.38;1.52;;;;;;;21.76;35.02;99380.88;5035568;28;20180;-67
2022/07/01 04:49:33;;;;;;;5.00;1.83;;;;;;;21.91;34.65;99382.38;5016640;28;20056;-66
2022/07/01 04:51:59;;;;;;;2.58;1.52;;;;;;;21.83;33.76;99385.84;5028596;28;20124;-66
2022/07/01 04:54:28;;;;;;;2.30;1.50;;;;;;;21.76;34.23;99391.66;5034672;28;20141;-66
2022/07/01 04:56:54;;;;;;;6.25;1.67;;;;;;;21.66;34.26;99389.25;5033160;28;20126;-68
2022/07/01 04:59:20;;;;;;;3.20;1.95;;;;;;;21.61;34.16;99383.97;5034122;28;20440;-67
2022/07/01 05:01:49;;;;;;;3.00;1.63;;;;;;;21.93;33.90;99384.75;5034070;28;20053;-66
2022/07/01 05:04:17;;;;;;;2.78;1.60;;;;;;;21.75;33.89;99373.09;5034430;28;20042;-64
2022/07/01 05:06:43;;;;;;;4.00;1.50;;;;;;;21.72;34.18;99374.50;5034907;28;20041;-65
2022/07/01 05:09:09;;;;;;;3.17;1.60;;;;;;;21.86;34.13;99376.31;5053924;28;20056;-66
2022/07/01 05:11:35;;;;;;;2.95;2.00;;;;;;;21.96;34.36;99371.41;5051541;28;20048;-66
2022/07/01 05:14:01;;;;;;;3.75;1.95;;;;;;;22.16;34.13;99380.84;5053253;28;20041;-66
2022/07/01 05:16:26;;;;;;;3.58;1.55;;;;;;;21.90;34.00;99386.16;5019104;28;20528;-65
2022/07/01 05:21:56;;;;;;;2.60;2.03;;;;;;;21.37;34.77;99380.84;5026412;28;20073;-67
2022/07/01 05:24:23;;;;;;;4.80;1.92;;;;;;;21.07;35.44;99380.50;5033424;28;20050;-66
2022/07/01 05:26:49;;;;;;;5.03;2.05;;;;;;;21.03;35.64;99374.09;5032543;28;20055;-67
2022/07/01 05:29:15;;;;;;;3.33;1.65;;;;;;;21.02;35.52;99372.53;5015808;28;20368;-69
2022/07/01 05:31:41;;;;;;;2.67;1.70;;;;;;;21.02;35.76;99369.81;5038055;28;20056;-69
2022/07/01 05:34:07;;;;;;;2.80;1.70;;;;;;;20.95;35.72;99369.47;5031874;28;20450;-69
2022/07/01 05:36:34;;;;;;;2.38;1.90;;;;;;;20.76;36.69;99378.50;5044559;28;20048;-69
2022/07/01 05:39:00;;;;;;;4.15;2.20;;;;;;;20.76;36.69;99377.72;5053675;28;20117;-68
2022/07/01 05:41:26;;;;;;;3.08;1.77;;;;;;;20.67;37.02;99371.47;5047616;28;20403;-68
2022/07/01 05:43:52;;;;;;;5.93;2.30;;;;;;;20.53;37.79;99376.88;5047032;28;20048;-67
2022/07/01 05:46:18;;;;;;;1.60;1.48;;;;;;;20.38;36.59;99392.28;5047918;28;20029;-68
2022/07/01 05:48:44;;;;;;;2.97;1.35;;;;;;;19.94;36.72;99395.56;5046754;28;20483;-66
2022/07/01 05:51:09;;;;;;;2.63;1.45;;;;;;;19.85;36.97;99390.09;5044315;28;20578;-69
2022/07/01 05:53:35;;;;;;;2.88;1.48;;;;;;;19.72;36.76;99380.94;5029917;28;20059;-69
2022/07/01 05:56:01;;;;;;;2.95;1.63;;;;;;;19.68;37.61;99377.25;5038324;28;20044;-68
2022/07/01 05:58:26;;;;;;;2.78;1.42;;;;;;;19.67;36.93;99418.66;5033715;28;20042;-66
2022/07/01 06:00:52;;;;;;;3.25;1.50;;;;;;;19.48;36.78;99383.75;5028337;28;20093;-69
2022/07/01 06:03:18;;;;;;;4.72;1.42;;;;;;;19.46;36.57;99377.09;5045147;28;20038;-71
2022/07/01 06:05:44;;;;;;;2.75;1.40;;;;;;;19.36;37.65;99378.06;5035177;28;20068;-67
2022/07/01 06:08:10;;;;;;;3.83;1.50;;;;;;;19.39;37.63;99365.94;5034539;28;20377;-67
2022/07/01 06:10:36;;;;;;;1.90;1.27;;;;;;;19.44;36.64;99408.84;5033171;28;20045;-69
2022/07/01 06:13:02;;;;;;;2.63;1.40;;;;;;;19.25;36.33;99371.28;5047774;28;20040;-69
2022/07/01 06:15:28;;;;;;;2.05;1.35;;;;;;;19.36;36.05;99379.97;5048535;28;20324;-70
2022/07/01 06:17:54;;;;;;;6.60;1.67;;;;;;;19.36;36.82;99369.22;5028293;28;20091;-67
2022/07/01 06:20:20;;;;;;;4.47;1.40;;;;;;;19.51;36.79;99372.41;5027550;28;20049;-69
2022/07/01 06:22:46;;;;;;;7.65;1.60;;;;;;;19.43;36.38;99370.41;5030418;28;20041;-68
2022/07/01 06:25:12;;;;;;;1.92;1.38;;;;;;;19.36;36.54;99394.19;5035939;28;20041;-68
2022/07/01 06:27:42;;;;;;;1.55;1.40;;;;;;;19.18;35.54;99406.59;5047630;28;20040;-69
2022/07/01 06:30:09;;;;;;;5.78;1.63;;;;;;;19.06;35.94;99398.19;5047477;28;20502;-69
2022/07/01 06:32:35;;;;;;;4.30;1.40;;;;;;;19.02;35.65;99395.28;5046945;28;20051;-70
2022/07/01 06:35:01;;;;;;;3.10;1.38;;;;;;;18.92;35.95;99391.97;5048466;28;20033;-69
2022/07/01 06:37:32;;;;;;;3.72;1.50;;;;;;;18.85;36.29;99376.19;5048831;28;20080;-69
2022/07/01 06:39:58;;;;;;;6.22;1.40;;;;;;;18.89;35.93;99401.41;5047808;28;20110;-67
2022/07/01 06:42:24;;;;;;;3.72;1.70;;;;;;;18.94;36.37;99398.66;5028488;28;20041;-68
2022/07/01 06:44:49;;;;;;;5.47;1.52;;;;;;;19.04;35.59;99414.59;5044767;28;20079;-66
2022/07/01 06:47:15;;;;;;;1.73;1.50;;;;;;;18.96;35.48;99407.19;5015331;28;20094;-69
2022/07/01 06:49:41;;;;;;;5.38;1.80;;;;;;;18.87;35.04;99397.41;5027056;28;20139;-69
2022/07/01 06:52:07;;;;;;;2.72;1.45;;;;;;;18.89;34.83;99387.97;5028809;28;20056;-68
2022/07/01 06:54:37;;;;;;;4.68;1.50;;;;;;;19.08;34.33;99406.72;5035349;28;20139;-69
2022/07/01 06:57:04;;;;;;;1.40;1.30;;;;;;;19.08;33.70;99387.94;5045999;28;20051;-69
2022/07/01 06:59:30;;;;;;;5.03;1.23;;;;;;;19.22;33.28;99383.41;5011056;28;20061;-67
2022/07/01 07:01:55;;;;;;;6.72;1.80;;;;;;;19.24;32.10;99394.66;5044746;28;20071;-67
2022/07/01 07:04:21;;;;;;;2.28;1.30;;;;;;;19.24;32.15;99410.78;5042764;28;20573;-69
2022/07/01 07:06:47;;;;;;;4.88;1.90;;;;;;;19.15;32.16;99404.50;5047505;28;20037;-69
2022/07/01 07:09:12;;;;;;;4.53;1.70;;;;;;;19.05;31.89;99415.38;5046649;28;20060;-69
2022/07/01 07:11:38;;;;;;;1.48;1.30;;;;;;;19.11;29.83;99391.91;5027584;28;20041;-69
2022/07/01 07:14:04;;;;;;;1.52;1.42;;;;;;;19.13;29.26;99419.31;5040190;28;20037;-70
2022/07/01 07:16:30;;;;;;;1.75;1.65;;;;;;;19.15;30.06;99411.72;4992994;28;20499;-69
2022/07/01 07:18:55;;;;;;;2.80;1.30;;;;;;;19.15;29.99;99396.44;5028027;28;20049;-71
2022/07/01 07:21:22;;;;;;;3.80;1.25;;;;;;;19.10;31.06;99426.06;5043432;28;20254;-68
2022/07/01 07:23:49;;;;;;;1.83;1.40;;;;;;;19.21;29.95;99418.66;4993665;28;20045;-68
2022/07/01 07:26:15;;;;;;;1.48;1.20;;;;;;;19.11;30.56;99422.28;5041996;28;20037;-66
2022/07/01 07:28:40;;;;;;;2.15;1.42;;;;;;;19.13;29.38;99422.00;5040021;28;20044;-67
2022/07/01 07:31:06;;;;;;;2.33;1.25;;;;;;;19.16;30.81;99426.78;5044272;28;20433;-69
2022/07/01 07:33:32;;;;;;;3.60;1.45;;;;;;;19.13;31.67;99413.94;5041518;28;20044;-68
2022/07/01 07:35:58;;;;;;;2.40;1.38;;;;;;;19.18;31.80;99413.84;5029845;28;20037;-69
2022/07/01 07:38:24;;;;;;;1.20;1.20;;;;;;;19.26;30.98;99422.03;5009959;28;20515;-70
2022/07/01 07:40:50;;;;;;;2.28;1.30;;;;;;;19.21;30.50;99405.22;5029835;28;20045;-67
2022/07/01 07:43:15;;;;;;;2.75;1.50;;;;;;;19.21;30.38;99434.75;5029978;28;20052;-69
2022/07/01 07:45:41;;;;;;;1.77;1.20;;;;;;;19.34;30.80;99412.50;5028952;28;20439;-70
2022/07/01 07:48:08;;;;;;;4.13;1.20;;;;;;;19.41;30.80;99426.38;5045902;28;20669;-68
2022/07/01 07:50:34;;;;;;;1.83;1.15;;;;;;;19.40;30.57;99411.31;5041297;28;20068;-68
2022/07/01 07:53:00;;;;;;;1.30;1.20;;;;;;;19.51;30.65;99425.38;5029987;28;20115;-71
2022/07/01 07:55:27;;;;;;;2.20;1.30;;;;;;;19.58;30.69;99416.94;5029975;28;20534;-76
2022/07/01 07:57:54;;;;;;;3.38;1.40;;;;;;;19.66;30.91;99433.22;4978876;28;20483;-69
2022/07/01 08:00:20;;;;;;;1.42;1.20;;;;;;;19.60;30.76;99431.69;5026000;28;20148;-65
2022/07/01 08:02:46;;;;;;;3.45;1.30;;;;;;;19.53;31.65;99439.34;5031271;28;20497;-66
2022/07/01 08:05:12;;;;;;;2.63;1.50;;;;;;;19.63;32.03;99425.72;5029042;28;20052;-67
2022/07/01 08:07:39;;;;;;;2.53;1.65;;;;;;;19.72;31.61;99433.91;5029422;28;20099;-67
2022/07/01 08:10:06;;;;;;;2.30;1.30;;;;;;;19.78;31.19;99437.31;5010981;28;20045;-65
2022/07/01 08:12:31;;;;;;;1.33;1.23;;;;;;;19.68;31.47;99436.41;5028378;28;20049;-66
2022/07/01 08:14:57;;;;;;;4.75;1.77;;;;;;;19.67;32.21;99440.19;5029665;28;20072;-67
2022/07/01 08:17:23;;;;;;;1.65;1.40;;;;;;;19.72;31.30;99434.72;5027800;28;20060;-67
2022/07/01 08:19:50;;;;;;;1.90;1.30;;;;;;;19.70;31.88;99449.53;5026791;28;20048;-67
2022/07/01 08:22:16;;;;;;;2.13;1.20;;;;;;;19.69;31.54;99439.91;5029357;28;20505;-67
2022/07/01 08:24:42;;;;;;;2.80;1.25;;;;;;;19.76;31.62;99451.06;5028120;28;20455;-68
2022/07/01 08:27:07;;;;;;;2.40;1.27;;;;;;;19.71;31.25;99448.47;5027737;28;20037;-66
2022/07/01 08:29:33;;;;;;;6.22;1.35;;;;;;;19.60;29.65;99455.88;5027524;28;20041;-67
2022/07/01 08:31:59;;;;;;;6.65;1.70;;;;;;;19.64;30.30;99448.81;5026778;28;20446;-67
2022/07/01 08:34:24;;;;;;;1.92;1.20;;;;;;;19.71;29.68;99460.03;5027805;28;20052;-68
2022/07/01 08:36:50;;;;;;;2.60;1.52;;;;;;;19.71;29.36;99453.84;5028384;28;20510;-67
2022/07/01 08:39:16;;;;;;;4.45;2.22;;;;;;;19.78;29.34;99448.88;5028260;28;20123;-66
2022/07/01 08:41:42;;;;;;;2.63;1.95;;;;;;;19.87;29.06;99436.31;5027458;28;20055;-66
2022/07/01 08:44:08;;;;;;;2.60;1.60;;;;;;;19.97;29.35;99459.53;5029006;28;20056;-67
2022/07/01 08:46:35;;;;;;;1.33;1.23;;;;;;;20.02;28.71;99450.59;5028002;28;20041;-68
2022/07/01 08:49:01;;;;;;;1.75;1.50;;;;;;;20.02;28.88;99445.22;5029142;28;20033;-67
2022/07/01 08:51:26;;;;;;;2.40;1.55;;;;;;;19.91;29.67;99453.47;5031630;28;20050;-67
2022/07/01 08:53:52;;;;;;;3.20;1.38;;;;;;;19.94;29.86;99446.69;5030359;28;20049;-67
2022/07/01 08:59:02;;;;;;;1.85;1.38;;;;;;;20.00;29.52;99466.22;5031356;28;20064;-66
2022/07/01 09:01:28;;;;;;;2.72;1.42;;;;;;;20.04;29.18;99457.28;5031241;28;20037;-67
2022/07/01 09:04:12;;;;;;;2.40;1.30;;;;;;;20.07;29.33;99462.06;5031855;28;20056;-68
2022/07/01 09:06:38;;;;;;;2.85;1.50;;;;;;;20.04;29.39;99478.78;5032194;28;20041;-67
2022/07/01 09:09:14;;;;;;;4.40;1.70;;;;;;;19.99;30.45;99453.88;5031001;28;20625;-67
2022/07/01 09:11:53;;;;;;;1.77;1.42;;;;;;;20.04;29.60;99459.16;5029504;28;20048;-67
2022/07/01 09:14:21;;;;;;;3.85;1.52;;;;;;;20.05;29.34;99455.38;5030930;28;20055;-69
2022/07/01 09:16:48;;;;;;;3.08;1.30;;;;;;;20.00;28.56;99455.47;5029367;28;20034;-67
2022/07/01 09:19:15;;;;;;;3.45;1.60;;;;;;;19.95;29.95;99456.38;5030533;28;20045;-67
2022/07/01 09:21:42;;;;;;;3.65;1.92;;;;;;;19.98;30.31;99469.22;5032401;28;20072;-66
2022/07/01 09:24:35;;;;;;;2.80;1.60;;;;;;;20.03;29.54;99463.75;5031372;28;20046;-68
2022/07/01 09:27:10;;;;;;;4.00;1.40;;;;;;;20.12;29.22;99453.88;5029658;28;20184;-68
2022/07/01 09:29:38;;;;;;;3.20;1.45;;;;;;;20.04;26.68;99478.78;5030691;28;20184;-67
2022/07/01 09:32:07;;;;;;;4.63;1.40;;;;;;;19.89;26.73;99466.44;5028901;28;20048;-67
2022/07/01 09:34:50;;;;;;;3.28;1.80;;;;;;;19.94;27.29;99458.28;5029849;28;20056;-67
2022/07/01 09:37:18;;;;;;;2.42;1.40;;;;;;;19.83;28.62;99466.81;5030197;28;20049;-66
2022/07/01 09:39:49;;;;;;;2.92;1.20;;;;;;;19.83;28.84;99464.13;5030270;28;20442;-67
2022/07/01 09:42:17;;;;;;;2.13;1.60;;;;;;;19.87;29.15;99463.22;5030375;28;20041;-67
2022/07/01 09:44:57;;;;;;;2.22;1.40;;;;;;;19.82;28.39;99457.94;5029433;28;20049;-66
2022/07/01 09:47:24;;;;;;;6.93;1.77;;;;;;;19.78;28.85;99456.16;5029661;28;20415;-68
2022/07/01 09:49:50;;;;;;;4.00;1.80;;;;;;;19.82;29.04;99460.63;5030085;28;20088;-68
2022/07/01 09:52:17;;;;;;;3.20;1.50;;;;;;;19.86;29.43;99455.47;5031351;28;20451;-66
2022/07/01 09:54:47;;;;;;;7.03;2.08;;;;;;;19.90;29.36;99454.56;5029658;28;20088;-67
2022/07/01 09:57:13;;;;;;;1.85;1.27;;;;;;;19.98;29.65;99477.31;5030847;28;20083;-67
2022/07/01 09:59:39;;;;;;;2.53;1.60;;;;;;;19.95;29.23;99465.22;5029239;28;20487;-66
2022/07/01 10:02:07;;;;;;;4.72;1.45;;;;;;;20.04;29.58;99454.59;5029578;28;20041;-66
2022/07/01 10:04:34;;;;;;;3.55;1.88;;;;;;;20.22;29.73;99469.03;5029877;28;20049;-66
2022/07/01 10:07:21;;;;;;;1.90;1.30;;;;;;;20.27;27.17;99466.25;5030979;28;20079;-67
2022/07/01 10:10:05;;;;;;;2.13;1.30;;;;;;;20.20;26.71;99484.69;5029349;28;20521;-67
2022/07/01 10:12:35;;;;;;;3.50;1.60;;;;;;;20.02;27.58;99458.66;5031336;28;20056;-67
2022/07/01 10:15:02;;;;;;;1.50;1.40;;;;;;;20.05;26.97;99479.59;5029036;28;20056;-68
2022/07/01 10:17:32;;;;;;;2.90;1.30;;;;;;;20.00;27.07;99461.66;5029625;28;20041;-66
2022/07/01 10:20:10;;;;;;;5.70;1.60;;;;;;;19.93;26.07;99453.16;5030633;28;20059;-67
2022/07/01 10:22:37;;;;;;;3.45;1.60;;;;;;;19.94;26.12;99460.97;5030791;28;20591;-67
2022/07/01 10:25:30;;;;;;;2.42;1.40;;;;;;;19.90;25.75;99469.91;5028852;28;20053;-68
2022/07/01 10:28:12;;;;;;;2.63;1.60;;;;;;;19.92;27.11;99475.81;5030300;28;20053;-67
2022/07/01 10:30:54;;;;;;;6.50;1.55;;;;;;;20.00;27.19;99471.59;5029078;28;20052;-68
2022/07/01 10:33:48;;;;;;;1.55;1.40;;;;;;;20.07;25.90;99475.50;5030121;28;20058;-67
2022/07/01 10:36:25;;;;;;;2.90;1.30;;;;;;;19.96;24.93;99491.03;5029408;28;20499;-67
2022/07/01 10:39:00;;;;;;;2.47;1.40;;;;;;;19.95;25.35;99483.28;5029063;28;20057;-67
2022/07/01 10:41:29;;;;;;;2.15;1.40;;;;;;;19.94;25.41;99482.47;5027733;28;20065;-67
2022/07/01 10:43:55;;;;;;;4.28;1.63;;;;;;;19.88;26.07;99488.22;5028672;28;20045;-67
2022/07/01 10:46:37;;;;;;;6.32;1.70;;;;;;;19.88;27.12;99490.91;5029683;28;20043;-66
2022/07/01 10:49:03;;;;;;;1.55;1.20;;;;;;;19.76;26.77;99475.25;5028181;28;20138;-67
2022/07/01 10:51:54;;;;;;;1.70;1.40;;;;;;;19.77;27.04;99482.25;5028561;28;20140;-67
2022/07/01 10:54:39;;;;;;;2.88;1.40;;;;;;;19.92;27.87;99486.56;5029712;28;20052;-68
2022/07/01 10:57:17;;;;;;;1.73;1.50;;;;;;;19.93;28.27;99493.53;5029740;28;20052;-67
2022/07/01 10:59:43;;;;;;;2.45;1.58;;;;;;;19.90;27.89;99483.34;5029360;28;20144;-66
2022/07/01 11:02:16;;;;;;;1.60;1.50;;;;;;;19.93;28.26;99477.38;5028745;28;20042;-67
2022/07/01 11:04:42;;;;;;;2.30;1.40;;;;;;;20.02;27.89;99483.66;5029287;28;20541;-67
2022/07/01 11:07:09;;;;;;;3.80;1.60;;;;;;;20.10;28.58;99487.56;5029556;28;20128;-67
2022/07/01 11:09:35;;;;;;;1.75;1.42;;;;;;;20.03;28.25;99474.53;5029202;28;20045;-67
2022/07/01 11:12:01;;;;;;;2.50;1.52;;;;;;;20.01;26.45;99468.63;5029051;28;20099;-67
2022/07/01 11:14:27;;;;;;;1.38;1.27;;;;;;;20.00;27.54;99476.97;5029666;28;20364;-67
2022/07/01 11:16:54;;;;;;;5.85;1.77;;;;;;;19.90;27.46;99475.28;4994658;28;20462;-69
2022/07/01 11:19:20;;;;;;;1.77;1.45;;;;;;;19.93;25.79;99462.03;5029561;28;20510;-66
2022/07/01 11:21:52;;;;;;;2.70;1.60;;;;;;;19.99;25.31;99475.41;5012497;28;20052;-67
2022/07/01 11:24:18;;;;;;;2.80;1.60;;;;;;;20.02;25.68;99470.22;5026686;28;20450;-67
2022/07/01 11:26:44;;;;;;;1.60;1.50;;;;;;;20.11;25.44;99470.31;5028404;28;20091;-67
2022/07/01 11:29:11;;;;;;;3.90;1.60;;;;;;;20.08;24.62;99476.31;5028426;28;20140;-66
2022/07/01 11:31:37;;;;;;;2.17;1.52;;;;;;;20.14;25.10;99467.81;5028473;28;20393;-66
2022/07/01 11:34:04;;;;;;;1.85;1.60;;;;;;;20.18;25.30;99460.78;5028812;28;20072;-67
2022/07/01 11:39:23;;;;;;;3.15;1.30;;;;;;;20.07;25.49;99485.47;5027633;28;20056;-65
2022/07/01 11:41:57;;;;;;;1.83;1.30;;;;;;;20.11;25.47;99473.00;5029569;28;20125;-66
2022/07/01 11:44:30;;;;;;;5.03;1.58;;;;;;;20.12;25.24;99478.13;5030451;28;20041;-66
2022/07/01 11:46:55;;;;;;;5.05;1.75;;;;;;;20.13;26.95;99470.84;5029716;28;20041;-67